Debra D — WDF7030 — position and weather

sailwx.info

Track history (hours):
 
Tides and Currents Weather Stations Pressure Air Temp Water Temp Dewpoint Dewpoint Depression Visibility Wind Speed Wind Dir Waves Ship Positions

Debra D

Owner: Hart, Erik L, Oregon City, OR. More information available from US FCC via Universal Licensing System and Coast Guard Vessel Documentation Center.

Last reported at 2018-Jun-09 08:38 UTC. Time now 2018-Jun-18 17:37 UTC.
Position N 54°34' W 131°01'.
Warning: this ship's position is 9 days out of date.

Length 10 m.

Type: Pleasure craft. MMSI: 3674803.

Date/timePositionNaut miles runAvg speedWind from/ knotsBaromVisibWave heightAir tempDewpointWater temp
2018-Jun-09 08:38N 54°34' W 131°01'4 8.7
2018-Jun-09 08:10N 54°30' W 131°03'3 9.6
2018-Jun-09 07:53N 54°28' W 131°05'4 9.6
2018-Jun-09 07:30N 54°24' W 131°06'5 9.6
2018-Jun-09 07:00N 54°19' W 131°07'5 9.6
2018-Jun-09 06:30N 54°14' W 131°06'5 9.8
2018-Jun-09 06:00N 54°10' W 131°06'5 9.7
2018-Jun-09 05:31N 54°05' W 131°05'5 9.8
2018-Jun-09 05:00N 53°60' W 131°03'510.1
2018-Jun-09 04:30N 53°55' W 131°02'5 9.8
2018-Jun-09 04:00N 53°50' W 131°00'710.1
2018-Jun-09 03:21N 53°44' W 130°58'355 8.6
2018-Jun-07 09:55N 48°37' W 126°16'4 8.5
2018-Jun-07 09:26N 48°35' W 126°10'5 8.4
2018-Jun-07 08:53N 48°34' W 126°03'5 8.3
2018-Jun-07 08:15N 48°33' W 125°55'3 8.8
2018-Jun-07 07:56N 48°33' W 125°51'4 8.9
2018-Jun-07 07:30N 48°33' W 125°45'4 8.6
2018-Jun-07 06:59N 48°33' W 125°39'23 8.6
2018-Jun-07 04:17N 48°32' W 125°03'3 8.9
2018-Jun-07 04:00N 48°32' W 124°60'5 9.1
2018-Jun-07 03:29N 48°32' W 124°53'4 8.9
2018-Jun-07 03:00N 48°31' W 124°46'4 8.9
2018-Jun-07 02:31N 48°30' W 124°40'5 8.8
2018-Jun-07 02:00N 48°28' W 124°33'4 8.7
2018-Jun-07 01:31N 48°27' W 124°27'4 8.7
2018-Jun-07 01:00N 48°25' W 124°21'4 8.9
2018-Jun-07 00:30N 48°24' W 124°15'4 9.1
2018-Jun-07 00:00N 48°22' W 124°09'50 9.4
2018-Jun-06 18:40N 48°23' W 122°53'2 9.4
2018-Jun-06 18:29N 48°24' W 122°51'5 9.3
2018-Jun-06 17:59N 48°27' W 122°46'5 9.9
2018-Jun-06 17:29N 48°31' W 122°42'5 9.4
2018-Jun-06 17:00N 48°36' W 122°40'5 9.4
2018-Jun-06 16:28N 48°39' W 122°34'7 6.3
2018-Jun-06 15:26N 48°45' W 122°31'1 1.1
2018-Jun-06 14:59N 48°45' W 122°30'0 0.0
2018-Jun-06 14:30N 48°45' W 122°30'0 0.0
2018-Jun-06 13:59N 48°45' W 122°30'0 0.0
2018-Jun-06 13:29N 48°45' W 122°30'0 0.0
2018-Jun-06 13:00N 48°45' W 122°30'0 0.0
2018-Jun-06 12:29N 48°45' W 122°30'0 0.0
2018-Jun-06 12:00N 48°45' W 122°30'0 0.0
2018-Jun-06 11:30N 48°45' W 122°30'0 0.0
2018-Jun-06 11:00N 48°45' W 122°30'0 0.0
2018-Jun-06 10:30N 48°45' W 122°30'0 0.0
2018-Jun-06 09:58N 48°45' W 122°30'0 0.0
2018-Jun-06 09:28N 48°45' W 122°30'0 0.0
2018-Jun-06 07:57N 48°45' W 122°30'0 0.0
2018-Jun-06 07:20N 48°45' W 122°30'0 0.0
2018-Jun-06 07:00N 48°45' W 122°30'0 0.0
2018-Jun-06 06:28N 48°45' W 122°30'0 0.0
2018-Jun-06 05:55N 48°45' W 122°30'0 0.0
2018-Jun-06 05:29N 48°45' W 122°30'0 0.0
2018-Jun-06 04:59N 48°45' W 122°30'0 0.0
2018-Jun-06 04:30N 48°45' W 122°30'0 0.0
2018-Jun-06 04:00N 48°45' W 122°30'0 0.0
2018-Jun-06 03:30N 48°45' W 122°30'0 0.0
2018-Jun-06 03:00N 48°45' W 122°30'0 0.0
2018-Jun-06 02:29N 48°45' W 122°30'0 0.0
2018-Jun-06 01:59N 48°45' W 122°30'0 0.0
2018-Jun-06 01:29N 48°45' W 122°30'0 0.0
2018-Jun-06 00:59N 48°45' W 122°30'0 0.0
2018-Jun-06 00:30N 48°45' W 122°30'0 0.0
2018-Jun-06 00:00N 48°45' W 122°30'0 0.0
2018-Jun-05 23:30N 48°45' W 122°30'0 0.0
2018-Jun-05 22:58N 48°45' W 122°30'0 0.0
2018-Jun-05 22:30N 48°45' W 122°30'0 0.0
2018-Jun-05 22:00N 48°45' W 122°30'0 0.0
2018-Jun-05 21:30N 48°45' W 122°30'0 0.0
2018-Jun-05 20:59N 48°45' W 122°30'0 0.0
2018-Jun-05 20:30N 48°45' W 122°30'0 0.0
2018-Jun-05 20:00N 48°45' W 122°30'0 0.0
2018-Jun-05 19:30N 48°45' W 122°30'0 0.0
2018-Jun-05 19:00N 48°45' W 122°30'0 0.0
2018-Jun-05 18:29N 48°45' W 122°30'0 0.0
2018-Jun-05 17:58N 48°45' W 122°30'0 0.0
2018-Jun-05 17:30N 48°45' W 122°30'0 0.0
2018-Jun-05 17:00N 48°45' W 122°30'0 0.0
2018-Jun-05 16:30N 48°45' W 122°30'0 0.0
2018-Jun-05 16:00N 48°45' W 122°30'0 0.0
2018-Jun-05 15:30N 48°45' W 122°30'0 0.0
2018-Jun-05 14:55N 48°45' W 122°30'0 0.0
2018-Jun-05 14:30N 48°45' W 122°30'0 0.0
2018-Jun-05 14:00N 48°45' W 122°30'0 0.0
2018-Jun-05 13:28N 48°45' W 122°30'0 0.0
2018-Jun-05 13:00N 48°45' W 122°30'0 0.0
2018-Jun-05 12:30N 48°45' W 122°30'0 0.0
2018-Jun-05 11:58N 48°45' W 122°30'0 0.0
2018-Jun-05 11:30N 48°45' W 122°30'0 0.0
2018-Jun-05 11:00N 48°45' W 122°30'0 0.0
2018-Jun-05 10:30N 48°45' W 122°30'0 0.0
2018-Jun-05 10:00N 48°45' W 122°30'0 0.0
2018-Jun-05 09:30N 48°45' W 122°30'0 0.0
2018-Jun-05 09:00N 48°45' W 122°30'0 0.0
2018-Jun-05 08:30N 48°45' W 122°30'0 0.0
2018-Jun-05 08:00N 48°45' W 122°30'0 0.0
2018-Jun-05 07:30N 48°45' W 122°30'0 0.0
2018-Jun-05 07:00N 48°45' W 122°30'0 0.0
2018-Jun-05 06:30N 48°45' W 122°30'0 0.0
2018-Jun-05 05:56N 48°45' W 122°30'0 0.0
2018-Jun-05 05:26N 48°45' W 122°30'0 0.0
2018-Jun-05 04:59N 48°45' W 122°30'0 0.0
2018-Jun-05 04:10N 48°45' W 122°30'0 0.0
2018-Jun-05 03:56N 48°45' W 122°30'0 0.0
2018-Jun-05 03:30N 48°45' W 122°30'0 0.0
2018-Jun-05 02:58N 48°45' W 122°30'0 0.0
2018-Jun-05 02:25N 48°45' W 122°30'0 0.0
2018-Jun-05 01:59N 48°45' W 122°30'0 0.0
2018-Jun-05 01:28N 48°45' W 122°30'0 0.0
2018-Jun-05 00:58N 48°45' W 122°30'0 0.0
2018-Jun-05 00:28N 48°45' W 122°30'0 0.0
2018-Jun-05 00:00N 48°45' W 122°30'0 0.0
2018-Jun-04 23:30N 48°45' W 122°30'0 0.0
2018-Jun-04 23:00N 48°45' W 122°30'0 0.0
2018-Jun-04 22:30N 48°45' W 122°30'0 0.0
2018-Jun-04 22:00N 48°45' W 122°30'0 0.0
2018-Jun-04 21:30N 48°45' W 122°30'0 0.0
2018-Jun-04 21:00N 48°45' W 122°30'0 0.0
2018-Jun-04 20:30N 48°45' W 122°30'0 0.0
2018-Jun-04 19:59N 48°45' W 122°30'0 0.0
2018-Jun-04 19:29N 48°45' W 122°30'0 0.0
2018-Jun-04 19:00N 48°45' W 122°30'0 0.0
2018-Jun-04 18:30N 48°45' W 122°30'0 0.0
2018-Jun-04 18:00N 48°45' W 122°30'0 0.0
2018-Jun-04 17:30N 48°45' W 122°30'0 0.0
2018-Jun-04 16:59N 48°45' W 122°30'0 0.0
2018-Jun-04 16:27N 48°45' W 122°30'0 0.0
2018-Jun-04 16:00N 48°45' W 122°30'0 0.0
2018-Jun-04 15:29N 48°45' W 122°30'0 0.0
2018-Jun-04 15:00N 48°45' W 122°30'0 0.0
2018-Jun-04 14:30N 48°45' W 122°30'0 0.0
2018-Jun-04 14:00N 48°45' W 122°30'0 0.0
2018-Jun-04 13:30N 48°45' W 122°30'0 0.0
2018-Jun-04 13:00N 48°45' W 122°30'0 0.0
2018-Jun-04 12:29N 48°45' W 122°30'0 0.0
2018-Jun-04 12:00N 48°45' W 122°30'0 0.0
2018-Jun-04 11:30N 48°45' W 122°30'0 0.0
2018-Jun-04 10:57N 48°45' W 122°30'0 0.0
2018-Jun-04 10:29N 48°45' W 122°30'0 0.0
2018-Jun-04 10:00N 48°45' W 122°30'0 0.0
2018-Jun-04 09:30N 48°45' W 122°30'0 0.0
2018-Jun-04 09:00N 48°45' W 122°30'0 0.0
2018-Jun-04 08:27N 48°45' W 122°30'0 0.0
2018-Jun-04 08:00N 48°45' W 122°30'0 0.0
2018-Jun-04 07:30N 48°45' W 122°30'0 0.0
2018-Jun-04 07:00N 48°45' W 122°30'0 0.0
2018-Jun-04 06:30N 48°45' W 122°30'0 0.0
2018-Jun-04 05:54N 48°45' W 122°30'0 0.0
2018-Jun-04 05:27N 48°45' W 122°30'0 0.0
2018-Jun-04 05:00N 48°45' W 122°30'0 0.0
2018-Jun-04 04:28N 48°45' W 122°30'0 0.0
2018-Jun-04 04:00N 48°45' W 122°30'0 0.0
2018-Jun-04 03:30N 48°45' W 122°30'0 0.0
2018-Jun-04 03:00N 48°45' W 122°30'0 0.0
2018-Jun-04 02:25N 48°45' W 122°30'0 0.0
2018-Jun-04 01:59N 48°45' W 122°30'0 0.0
2018-Jun-04 01:29N 48°45' W 122°30'0 0.0
2018-Jun-04 01:00N 48°45' W 122°30'0 0.0
2018-Jun-04 00:30N 48°45' W 122°30'0 0.0
2018-Jun-04 00:00N 48°45' W 122°30'0 0.0
2018-Jun-03 23:30N 48°45' W 122°30'0 0.0
2018-Jun-03 23:00N 48°45' W 122°30'0 0.0
2018-Jun-03 22:29N 48°45' W 122°30'0 0.0
2018-Jun-03 22:00N 48°45' W 122°30'0 0.0
2018-Jun-03 21:29N 48°45' W 122°30'0 0.0
2018-Jun-03 20:55N 48°45' W 122°30'0 0.0
2018-Jun-03 20:28N 48°45' W 122°30'0 0.0
2018-Jun-03 19:59N 48°45' W 122°30'0 0.0
2018-Jun-03 19:29N 48°45' W 122°30'0 0.0
2018-Jun-03 19:00N 48°45' W 122°30'0 0.0
2018-Jun-03 18:27N 48°45' W 122°30'0 0.0
2018-Jun-03 17:59N 48°45' W 122°30'0 0.0
2018-Jun-03 17:24N 48°45' W 122°30'0 0.0
2018-Jun-03 16:57N 48°45' W 122°30'0 0.0
2018-Jun-03 16:28N 48°45' W 122°30'0 0.0
2018-Jun-03 15:59N 48°45' W 122°30'0 0.0
2018-Jun-03 15:28N 48°45' W 122°30'0 0.0
2018-Jun-03 14:51N 48°45' W 122°30'0 0.0
2018-Jun-03 14:24N 48°45' W 122°30'0 0.0
2018-Jun-03 13:55N 48°45' W 122°30'0 0.0
2018-Jun-03 13:30N 48°45' W 122°30'0 0.0
2018-Jun-03 13:00N 48°45' W 122°30'0 0.0
2018-Jun-03 12:30N 48°45' W 122°30'0 0.0
2018-Jun-03 12:00N 48°45' W 122°30'0 0.0
2018-Jun-03 11:30N 48°45' W 122°30'0 0.0
2018-Jun-03 11:00N 48°45' W 122°30'0 0.0
2018-Jun-03 10:28N 48°45' W 122°30'0 0.0
2018-Jun-03 10:00N 48°45' W 122°30'0 0.0
2018-Jun-03 09:29N 48°45' W 122°30'0 0.0
2018-Jun-03 08:56N 48°45' W 122°30'0 0.0
2018-Jun-03 08:30N 48°45' W 122°30'0 0.0
2018-Jun-03 08:00N 48°45' W 122°30'0 0.0
2018-Jun-03 07:28N 48°45' W 122°30'0 0.0
2018-Jun-03 06:58N 48°45' W 122°30'0 0.0
2018-Jun-03 06:30N 48°45' W 122°30'0 0.0
2018-Jun-03 05:59N 48°45' W 122°30'0 0.0
2018-Jun-03 05:30N 48°45' W 122°30'0 0.0
2018-Jun-03 05:00N 48°45' W 122°30'0 0.0
2018-Jun-03 04:29N 48°45' W 122°30'0 0.0
2018-Jun-03 03:55N 48°45' W 122°30'0 0.0
2018-Jun-03 03:10N 48°45' W 122°30'0 0.0
2018-Jun-03 02:47N 48°45' W 122°30'0 0.0
2018-Jun-03 02:30N 48°45' W 122°30'0 0.0
2018-Jun-03 02:00N 48°45' W 122°30'0 0.0
2018-Jun-03 01:28N 48°45' W 122°30'0 0.0
2018-Jun-03 00:58N 48°45' W 122°30'0 0.0
2018-Jun-03 00:30N 48°45' W 122°30'0 0.0
2018-Jun-03 00:00N 48°45' W 122°30'0 0.0
2018-Jun-02 23:30N 48°45' W 122°30'0 0.0
2018-Jun-02 23:00N 48°45' W 122°30'0 0.0
2018-Jun-02 22:30N 48°45' W 122°30'0 0.0
2018-Jun-02 22:00N 48°45' W 122°30'0 0.0
2018-Jun-02 21:30N 48°45' W 122°30'0 0.0
2018-Jun-02 21:00N 48°45' W 122°30'0 0.0
2018-Jun-02 20:29N 48°45' W 122°30'0 0.0
2018-Jun-02 19:59N 48°45' W 122°30'0 0.0
2018-Jun-02 19:29N 48°45' W 122°30'0 0.0
2018-Jun-02 18:26N 48°45' W 122°30'0 0.0
2018-Jun-02 15:51N 48°45' W 122°30'0 0.0
2018-Jun-02 15:28N 48°45' W 122°30'0 0.0
2018-Jun-02 13:57N 48°45' W 122°30'0 0.0
2018-Jun-02 10:44N 48°45' W 122°30'0 0.0
2018-Jun-02 10:25N 48°45' W 122°30'0 0.0
2018-Jun-02 08:55N 48°45' W 122°30'0 0.0
2018-Jun-02 07:46N 48°45' W 122°30'0 0.0
2018-Jun-02 05:36N 48°45' W 122°30'0 0.0
2018-Jun-02 05:15N 48°45' W 122°30'0 0.0
2018-Jun-02 05:00N 48°45' W 122°30'0 0.0
2018-Jun-02 04:26N 48°45' W 122°30'0 0.0
2018-Jun-02 03:57N 48°45' W 122°30'0 0.0
2018-Jun-02 03:30N 48°45' W 122°30'0 0.0
2018-Jun-02 02:57N 48°45' W 122°30'0 0.0
2018-Jun-02 02:28N 48°45' W 122°30'0 0.0
2018-Jun-02 01:59N 48°45' W 122°30'0 0.0
2018-Jun-02 01:16N 48°45' W 122°30'0 0.0
2018-Jun-02 00:56N 48°45' W 122°30'0 0.0
2018-Jun-02 00:29N 48°45' W 122°30'0 0.0
2018-Jun-01 23:55N 48°45' W 122°30'0 0.0
2018-Jun-01 23:30N 48°45' W 122°30'0 0.0
2018-Jun-01 22:59N 48°45' W 122°30'1 0.2
2018-Jun-01 19:59N 48°45' W 122°29'1 1.6
2018-Jun-01 19:30N 48°45' W 122°30'0 0.1
2018-Jun-01 19:00N 48°45' W 122°30'0 0.0
2018-Jun-01 18:29N 48°45' W 122°30'0 0.0
2018-Jun-01 18:00N 48°45' W 122°30'0 0.0
2018-Jun-01 17:28N 48°45' W 122°30'0 0.0
2018-Jun-01 16:58N 48°45' W 122°30'0 0.0
2018-Jun-01 16:30N 48°45' W 122°30'0 0.0
2018-Jun-01 16:00N 48°45' W 122°30'0 0.0
2018-Jun-01 15:26N 48°45' W 122°30'0 0.0
2018-Jun-01 15:00N 48°45' W 122°30'0 0.0
2018-Jun-01 14:27N 48°45' W 122°30'0 0.7
2018-Jun-01 13:59N 48°45' W 122°30'1 0.4
2018-Jun-01 12:13N 48°45' W 122°29'0 0.0
2018-Jun-01 11:59N 48°45' W 122°29'0 0.0
2018-Jun-01 09:41N 48°45' W 122°29'0 0.0
2018-Jun-01 04:50N 48°45' W 122°29'0 0.2
2018-Jun-01 04:30N 48°45' W 122°29'0 0.0
2018-Jun-01 04:00N 48°45' W 122°29'0 0.0
2018-Jun-01 03:29N 48°45' W 122°29'0 0.0
2018-Jun-01 02:58N 48°45' W 122°29'0 0.0
2018-Jun-01 02:20N 48°45' W 122°29'0 0.0
2018-Jun-01 01:56N 48°45' W 122°29'0 0.0
2018-May-31 16:31N 48°45' W 122°29'0 0.0
2018-May-31 16:29N 48°45' W 122°29'0 0.0
2018-May-31 14:46N 48°45' W 122°29'0 0.0
2018-May-31 14:29N 48°45' W 122°29'0 0.0
2018-May-31 13:51N 48°45' W 122°29'0 0.0
2018-May-31 13:25N 48°45' W 122°29'0 0.0
2018-May-31 12:59N 48°45' W 122°29'0 0.0
2018-May-31 12:28N 48°45' W 122°29'0 0.0
2018-May-31 11:58N 48°45' W 122°29'0 0.0
2018-May-31 11:25N 48°45' W 122°29'0 0.0
2018-May-31 10:58N 48°45' W 122°29'0 0.0
2018-May-31 10:28N 48°45' W 122°29'0 0.0
2018-May-31 10:00N 48°45' W 122°29'0 0.0
2018-May-31 09:22N 48°45' W 122°29'0 0.0
2018-May-31 08:59N 48°45' W 122°29'0 0.0
2018-May-31 08:28N 48°45' W 122°29'0 0.0
2018-May-31 08:00N 48°45' W 122°29'0 0.0
2018-May-31 07:21N 48°45' W 122°29'0 0.0
2018-May-31 06:57N 48°45' W 122°29'0 0.0
2018-May-31 06:29N 48°45' W 122°29'0 0.0
2018-May-31 05:55N 48°45' W 122°29'0 0.0
2018-May-31 03:18N 48°45' W 122°29'0 0.0
2018-May-31 02:56N 48°45' W 122°29'0 0.0
2018-May-31 01:18N 48°45' W 122°29'0 0.0
2018-May-31 00:42N 48°45' W 122°29'0 0.0
2018-May-31 00:14N 48°45' W 122°29'0 0.0
2018-May-30 12:20N 48°45' W 122°29'  
Track history (hours):
 
Tides and Currents Weather Stations Pressure Air Temp Water Temp Dewpoint Dewpoint Depression Visibility Wind Speed Wind Dir Waves Ship Positions

Debra D

Owner: Hart, Erik L, Oregon City, OR. More information available from US FCC via Universal Licensing System and Coast Guard Vessel Documentation Center.

Last reported at 2018-Jun-09 08:38 UTC. Time now 2018-Jun-18 17:37 UTC.
Position N 54°34' W 131°01'.
Warning: this ship's position is 9 days out of date.

Length 10 m.

Type: Pleasure craft. MMSI: 3674803.

Date/timePositionNaut miles runAvg speedWind from/ knotsBaromVisibWave heightAir tempDewpointWater temp
2018-Jun-09 08:38N 54°34' W 131°01'4 8.7
2018-Jun-09 08:10N 54°30' W 131°03'3 9.6
2018-Jun-09 07:53N 54°28' W 131°05'4 9.6
2018-Jun-09 07:30N 54°24' W 131°06'5 9.6
2018-Jun-09 07:00N 54°19' W 131°07'5 9.6
2018-Jun-09 06:30N 54°14' W 131°06'5 9.8
2018-Jun-09 06:00N 54°10' W 131°06'5 9.7
2018-Jun-09 05:31N 54°05' W 131°05'5 9.8
2018-Jun-09 05:00N 53°60' W 131°03'510.1
2018-Jun-09 04:30N 53°55' W 131°02'5 9.8
2018-Jun-09 04:00N 53°50' W 131°00'710.1
2018-Jun-09 03:21N 53°44' W 130°58'355 8.6
2018-Jun-07 09:55N 48°37' W 126°16'4 8.5
2018-Jun-07 09:26N 48°35' W 126°10'5 8.4
2018-Jun-07 08:53N 48°34' W 126°03'5 8.3
2018-Jun-07 08:15N 48°33' W 125°55'3 8.8
2018-Jun-07 07:56N 48°33' W 125°51'4 8.9
2018-Jun-07 07:30N 48°33' W 125°45'4 8.6
2018-Jun-07 06:59N 48°33' W 125°39'23 8.6
2018-Jun-07 04:17N 48°32' W 125°03'3 8.9
2018-Jun-07 04:00N 48°32' W 124°60'5 9.1
2018-Jun-07 03:29N 48°32' W 124°53'4 8.9
2018-Jun-07 03:00N 48°31' W 124°46'4 8.9
2018-Jun-07 02:31N 48°30' W 124°40'5 8.8
2018-Jun-07 02:00N 48°28' W 124°33'4 8.7
2018-Jun-07 01:31N 48°27' W 124°27'4 8.7
2018-Jun-07 01:00N 48°25' W 124°21'4 8.9
2018-Jun-07 00:30N 48°24' W 124°15'4 9.1
2018-Jun-07 00:00N 48°22' W 124°09'50 9.4
2018-Jun-06 18:40N 48°23' W 122°53'2 9.4
2018-Jun-06 18:29N 48°24' W 122°51'5 9.3
2018-Jun-06 17:59N 48°27' W 122°46'5 9.9
2018-Jun-06 17:29N 48°31' W 122°42'5 9.4
2018-Jun-06 17:00N 48°36' W 122°40'5 9.4
2018-Jun-06 16:28N 48°39' W 122°34'7 6.3
2018-Jun-06 15:26N 48°45' W 122°31'1 1.1
2018-Jun-06 14:59N 48°45' W 122°30'0 0.0
2018-Jun-06 14:30N 48°45' W 122°30'0 0.0
2018-Jun-06 13:59N 48°45' W 122°30'0 0.0
2018-Jun-06 13:29N 48°45' W 122°30'0 0.0
2018-Jun-06 13:00N 48°45' W 122°30'0 0.0
2018-Jun-06 12:29N 48°45' W 122°30'0 0.0
2018-Jun-06 12:00N 48°45' W 122°30'0 0.0
2018-Jun-06 11:30N 48°45' W 122°30'0 0.0
2018-Jun-06 11:00N 48°45' W 122°30'0 0.0
2018-Jun-06 10:30N 48°45' W 122°30'0 0.0
2018-Jun-06 09:58N 48°45' W 122°30'0 0.0
2018-Jun-06 09:28N 48°45' W 122°30'0 0.0
2018-Jun-06 07:57N 48°45' W 122°30'0 0.0
2018-Jun-06 07:20N 48°45' W 122°30'0 0.0
2018-Jun-06 07:00N 48°45' W 122°30'0 0.0
2018-Jun-06 06:28N 48°45' W 122°30'0 0.0
2018-Jun-06 05:55N 48°45' W 122°30'0 0.0
2018-Jun-06 05:29N 48°45' W 122°30'0 0.0
2018-Jun-06 04:59N 48°45' W 122°30'0 0.0
2018-Jun-06 04:30N 48°45' W 122°30'0 0.0
2018-Jun-06 04:00N 48°45' W 122°30'0 0.0
2018-Jun-06 03:30N 48°45' W 122°30'0 0.0
2018-Jun-06 03:00N 48°45' W 122°30'0 0.0
2018-Jun-06 02:29N 48°45' W 122°30'0 0.0
2018-Jun-06 01:59N 48°45' W 122°30'0 0.0
2018-Jun-06 01:29N 48°45' W 122°30'0 0.0
2018-Jun-06 00:59N 48°45' W 122°30'0 0.0
2018-Jun-06 00:30N 48°45' W 122°30'0 0.0
2018-Jun-06 00:00N 48°45' W 122°30'0 0.0
2018-Jun-05 23:30N 48°45' W 122°30'0 0.0
2018-Jun-05 22:58N 48°45' W 122°30'0 0.0
2018-Jun-05 22:30N 48°45' W 122°30'0 0.0
2018-Jun-05 22:00N 48°45' W 122°30'0 0.0
2018-Jun-05 21:30N 48°45' W 122°30'0 0.0
2018-Jun-05 20:59N 48°45' W 122°30'0 0.0
2018-Jun-05 20:30N 48°45' W 122°30'0 0.0
2018-Jun-05 20:00N 48°45' W 122°30'0 0.0
2018-Jun-05 19:30N 48°45' W 122°30'0 0.0
2018-Jun-05 19:00N 48°45' W 122°30'0 0.0
2018-Jun-05 18:29N 48°45' W 122°30'0 0.0
2018-Jun-05 17:58N 48°45' W 122°30'0 0.0
2018-Jun-05 17:30N 48°45' W 122°30'0 0.0
2018-Jun-05 17:00N 48°45' W 122°30'0 0.0
2018-Jun-05 16:30N 48°45' W 122°30'0 0.0
2018-Jun-05 16:00N 48°45' W 122°30'0 0.0
2018-Jun-05 15:30N 48°45' W 122°30'0 0.0
2018-Jun-05 14:55N 48°45' W 122°30'0 0.0
2018-Jun-05 14:30N 48°45' W 122°30'0 0.0
2018-Jun-05 14:00N 48°45' W 122°30'0 0.0
2018-Jun-05 13:28N 48°45' W 122°30'0 0.0
2018-Jun-05 13:00N 48°45' W 122°30'0 0.0
2018-Jun-05 12:30N 48°45' W 122°30'0 0.0
2018-Jun-05 11:58N 48°45' W 122°30'0 0.0
2018-Jun-05 11:30N 48°45' W 122°30'0 0.0
2018-Jun-05 11:00N 48°45' W 122°30'0 0.0
2018-Jun-05 10:30N 48°45' W 122°30'0 0.0
2018-Jun-05 10:00N 48°45' W 122°30'0 0.0
2018-Jun-05 09:30N 48°45' W 122°30'0 0.0
2018-Jun-05 09:00N 48°45' W 122°30'0 0.0
2018-Jun-05 08:30N 48°45' W 122°30'0 0.0
2018-Jun-05 08:00N 48°45' W 122°30'0 0.0
2018-Jun-05 07:30N 48°45' W 122°30'0 0.0
2018-Jun-05 07:00N 48°45' W 122°30'0 0.0
2018-Jun-05 06:30N 48°45' W 122°30'0 0.0
2018-Jun-05 05:56N 48°45' W 122°30'0 0.0
2018-Jun-05 05:26N 48°45' W 122°30'0 0.0
2018-Jun-05 04:59N 48°45' W 122°30'0 0.0
2018-Jun-05 04:10N 48°45' W 122°30'0 0.0
2018-Jun-05 03:56N 48°45' W 122°30'0 0.0
2018-Jun-05 03:30N 48°45' W 122°30'0 0.0
2018-Jun-05 02:58N 48°45' W 122°30'0 0.0
2018-Jun-05 02:25N 48°45' W 122°30'0 0.0
2018-Jun-05 01:59N 48°45' W 122°30'0 0.0
2018-Jun-05 01:28N 48°45' W 122°30'0 0.0
2018-Jun-05 00:58N 48°45' W 122°30'0 0.0
2018-Jun-05 00:28N 48°45' W 122°30'0 0.0
2018-Jun-05 00:00N 48°45' W 122°30'0 0.0
2018-Jun-04 23:30N 48°45' W 122°30'0 0.0
2018-Jun-04 23:00N 48°45' W 122°30'0 0.0
2018-Jun-04 22:30N 48°45' W 122°30'0 0.0
2018-Jun-04 22:00N 48°45' W 122°30'0 0.0
2018-Jun-04 21:30N 48°45' W 122°30'0 0.0
2018-Jun-04 21:00N 48°45' W 122°30'0 0.0
2018-Jun-04 20:30N 48°45' W 122°30'0 0.0
2018-Jun-04 19:59N 48°45' W 122°30'0 0.0
2018-Jun-04 19:29N 48°45' W 122°30'0 0.0
2018-Jun-04 19:00N 48°45' W 122°30'0 0.0
2018-Jun-04 18:30N 48°45' W 122°30'0 0.0
2018-Jun-04 18:00N 48°45' W 122°30'0 0.0
2018-Jun-04 17:30N 48°45' W 122°30'0 0.0
2018-Jun-04 16:59N 48°45' W 122°30'0 0.0
2018-Jun-04 16:27N 48°45' W 122°30'0 0.0
2018-Jun-04 16:00N 48°45' W 122°30'0 0.0
2018-Jun-04 15:29N 48°45' W 122°30'0 0.0
2018-Jun-04 15:00N 48°45' W 122°30'0 0.0
2018-Jun-04 14:30N 48°45' W 122°30'0 0.0
2018-Jun-04 14:00N 48°45' W 122°30'0 0.0
2018-Jun-04 13:30N 48°45' W 122°30'0 0.0
2018-Jun-04 13:00N 48°45' W 122°30'0 0.0
2018-Jun-04 12:29N 48°45' W 122°30'0 0.0
2018-Jun-04 12:00N 48°45' W 122°30'0 0.0
2018-Jun-04 11:30N 48°45' W 122°30'0 0.0
2018-Jun-04 10:57N 48°45' W 122°30'0 0.0
2018-Jun-04 10:29N 48°45' W 122°30'0 0.0
2018-Jun-04 10:00N 48°45' W 122°30'0 0.0
2018-Jun-04 09:30N 48°45' W 122°30'0 0.0
2018-Jun-04 09:00N 48°45' W 122°30'0 0.0
2018-Jun-04 08:27N 48°45' W 122°30'0 0.0
2018-Jun-04 08:00N 48°45' W 122°30'0 0.0
2018-Jun-04 07:30N 48°45' W 122°30'0 0.0
2018-Jun-04 07:00N 48°45' W 122°30'0 0.0
2018-Jun-04 06:30N 48°45' W 122°30'0 0.0
2018-Jun-04 05:54N 48°45' W 122°30'0 0.0
2018-Jun-04 05:27N 48°45' W 122°30'0 0.0
2018-Jun-04 05:00N 48°45' W 122°30'0 0.0
2018-Jun-04 04:28N 48°45' W 122°30'0 0.0
2018-Jun-04 04:00N 48°45' W 122°30'0 0.0
2018-Jun-04 03:30N 48°45' W 122°30'0 0.0
2018-Jun-04 03:00N 48°45' W 122°30'0 0.0
2018-Jun-04 02:25N 48°45' W 122°30'0 0.0
2018-Jun-04 01:59N 48°45' W 122°30'0 0.0
2018-Jun-04 01:29N 48°45' W 122°30'0 0.0
2018-Jun-04 01:00N 48°45' W 122°30'0 0.0
2018-Jun-04 00:30N 48°45' W 122°30'0 0.0
2018-Jun-04 00:00N 48°45' W 122°30'0 0.0
2018-Jun-03 23:30N 48°45' W 122°30'0 0.0
2018-Jun-03 23:00N 48°45' W 122°30'0 0.0
2018-Jun-03 22:29N 48°45' W 122°30'0 0.0
2018-Jun-03 22:00N 48°45' W 122°30'0 0.0
2018-Jun-03 21:29N 48°45' W 122°30'0 0.0
2018-Jun-03 20:55N 48°45' W 122°30'0 0.0
2018-Jun-03 20:28N 48°45' W 122°30'0 0.0
2018-Jun-03 19:59N 48°45' W 122°30'0 0.0
2018-Jun-03 19:29N 48°45' W 122°30'0 0.0
2018-Jun-03 19:00N 48°45' W 122°30'0 0.0
2018-Jun-03 18:27N 48°45' W 122°30'0 0.0
2018-Jun-03 17:59N 48°45' W 122°30'0 0.0
2018-Jun-03 17:24N 48°45' W 122°30'0 0.0
2018-Jun-03 16:57N 48°45' W 122°30'0 0.0
2018-Jun-03 16:28N 48°45' W 122°30'0 0.0
2018-Jun-03 15:59N 48°45' W 122°30'0 0.0
2018-Jun-03 15:28N 48°45' W 122°30'0 0.0
2018-Jun-03 14:51N 48°45' W 122°30'0 0.0
2018-Jun-03 14:24N 48°45' W 122°30'0 0.0
2018-Jun-03 13:55N 48°45' W 122°30'0 0.0
2018-Jun-03 13:30N 48°45' W 122°30'0 0.0
2018-Jun-03 13:00N 48°45' W 122°30'0 0.0
2018-Jun-03 12:30N 48°45' W 122°30'0 0.0
2018-Jun-03 12:00N 48°45' W 122°30'0 0.0
2018-Jun-03 11:30N 48°45' W 122°30'0 0.0
2018-Jun-03 11:00N 48°45' W 122°30'0 0.0
2018-Jun-03 10:28N 48°45' W 122°30'0 0.0
2018-Jun-03 10:00N 48°45' W 122°30'0 0.0
2018-Jun-03 09:29N 48°45' W 122°30'0 0.0
2018-Jun-03 08:56N 48°45' W 122°30'0 0.0
2018-Jun-03 08:30N 48°45' W 122°30'0 0.0
2018-Jun-03 08:00N 48°45' W 122°30'0 0.0
2018-Jun-03 07:28N 48°45' W 122°30'0 0.0
2018-Jun-03 06:58N 48°45' W 122°30'0 0.0
2018-Jun-03 06:30N 48°45' W 122°30'0 0.0
2018-Jun-03 05:59N 48°45' W 122°30'0 0.0
2018-Jun-03 05:30N 48°45' W 122°30'0 0.0
2018-Jun-03 05:00N 48°45' W 122°30'0 0.0
2018-Jun-03 04:29N 48°45' W 122°30'0 0.0
2018-Jun-03 03:55N 48°45' W 122°30'0 0.0
2018-Jun-03 03:10N 48°45' W 122°30'0 0.0
2018-Jun-03 02:47N 48°45' W 122°30'0 0.0
2018-Jun-03 02:30N 48°45' W 122°30'0 0.0
2018-Jun-03 02:00N 48°45' W 122°30'0 0.0
2018-Jun-03 01:28N 48°45' W 122°30'0 0.0
2018-Jun-03 00:58N 48°45' W 122°30'0 0.0
2018-Jun-03 00:30N 48°45' W 122°30'0 0.0
2018-Jun-03 00:00N 48°45' W 122°30'0 0.0
2018-Jun-02 23:30N 48°45' W 122°30'0 0.0
2018-Jun-02 23:00N 48°45' W 122°30'0 0.0
2018-Jun-02 22:30N 48°45' W 122°30'0 0.0
2018-Jun-02 22:00N 48°45' W 122°30'0 0.0
2018-Jun-02 21:30N 48°45' W 122°30'0 0.0
2018-Jun-02 21:00N 48°45' W 122°30'0 0.0
2018-Jun-02 20:29N 48°45' W 122°30'0 0.0
2018-Jun-02 19:59N 48°45' W 122°30'0 0.0
2018-Jun-02 19:29N 48°45' W 122°30'0 0.0
2018-Jun-02 18:26N 48°45' W 122°30'0 0.0
2018-Jun-02 15:51N 48°45' W 122°30'0 0.0
2018-Jun-02 15:28N 48°45' W 122°30'0 0.0
2018-Jun-02 13:57N 48°45' W 122°30'0 0.0
2018-Jun-02 10:44N 48°45' W 122°30'0 0.0
2018-Jun-02 10:25N 48°45' W 122°30'0 0.0
2018-Jun-02 08:55N 48°45' W 122°30'0 0.0
2018-Jun-02 07:46N 48°45' W 122°30'0 0.0
2018-Jun-02 05:36N 48°45' W 122°30'0 0.0
2018-Jun-02 05:15N 48°45' W 122°30'0 0.0
2018-Jun-02 05:00N 48°45' W 122°30'0 0.0
2018-Jun-02 04:26N 48°45' W 122°30'0 0.0
2018-Jun-02 03:57N 48°45' W 122°30'0 0.0
2018-Jun-02 03:30N 48°45' W 122°30'0 0.0
2018-Jun-02 02:57N 48°45' W 122°30'0 0.0
2018-Jun-02 02:28N 48°45' W 122°30'0 0.0
2018-Jun-02 01:59N 48°45' W 122°30'0 0.0
2018-Jun-02 01:16N 48°45' W 122°30'0 0.0
2018-Jun-02 00:56N 48°45' W 122°30'0 0.0
2018-Jun-02 00:29N 48°45' W 122°30'0 0.0
2018-Jun-01 23:55N 48°45' W 122°30'0 0.0
2018-Jun-01 23:30N 48°45' W 122°30'0 0.0
2018-Jun-01 22:59N 48°45' W 122°30'1 0.2
2018-Jun-01 19:59N 48°45' W 122°29'1 1.6
2018-Jun-01 19:30N 48°45' W 122°30'0 0.1
2018-Jun-01 19:00N 48°45' W 122°30'0 0.0
2018-Jun-01 18:29N 48°45' W 122°30'0 0.0
2018-Jun-01 18:00N 48°45' W 122°30'0 0.0
2018-Jun-01 17:28N 48°45' W 122°30'0 0.0
2018-Jun-01 16:58N 48°45' W 122°30'0 0.0
2018-Jun-01 16:30N 48°45' W 122°30'0 0.0
2018-Jun-01 16:00N 48°45' W 122°30'0 0.0
2018-Jun-01 15:26N 48°45' W 122°30'0 0.0
2018-Jun-01 15:00N 48°45' W 122°30'0 0.0
2018-Jun-01 14:27N 48°45' W 122°30'0 0.7
2018-Jun-01 13:59N 48°45' W 122°30'1 0.4
2018-Jun-01 12:13N 48°45' W 122°29'0 0.0
2018-Jun-01 11:59N 48°45' W 122°29'0 0.0
2018-Jun-01 09:41N 48°45' W 122°29'0 0.0
2018-Jun-01 04:50N 48°45' W 122°29'0 0.2
2018-Jun-01 04:30N 48°45' W 122°29'0 0.0
2018-Jun-01 04:00N 48°45' W 122°29'0 0.0
2018-Jun-01 03:29N 48°45' W 122°29'0 0.0
2018-Jun-01 02:58N 48°45' W 122°29'0 0.0
2018-Jun-01 02:20N 48°45' W 122°29'0 0.0
2018-Jun-01 01:56N 48°45' W 122°29'0 0.0
2018-May-31 16:31N 48°45' W 122°29'0 0.0
2018-May-31 16:29N 48°45' W 122°29'0 0.0
2018-May-31 14:46N 48°45' W 122°29'0 0.0
2018-May-31 14:29N 48°45' W 122°29'0 0.0
2018-May-31 13:51N 48°45' W 122°29'0 0.0
2018-May-31 13:25N 48°45' W 122°29'0 0.0
2018-May-31 12:59N 48°45' W 122°29'0 0.0
2018-May-31 12:28N 48°45' W 122°29'0 0.0
2018-May-31 11:58N 48°45' W 122°29'0 0.0
2018-May-31 11:25N 48°45' W 122°29'0 0.0
2018-May-31 10:58N 48°45' W 122°29'0 0.0
2018-May-31 10:28N 48°45' W 122°29'0 0.0
2018-May-31 10:00N 48°45' W 122°29'0 0.0
2018-May-31 09:22N 48°45' W 122°29'0 0.0
2018-May-31 08:59N 48°45' W 122°29'0 0.0
2018-May-31 08:28N 48°45' W 122°29'0 0.0
2018-May-31 08:00N 48°45' W 122°29'0 0.0
2018-May-31 07:21N 48°45' W 122°29'0 0.0
2018-May-31 06:57N 48°45' W 122°29'0 0.0
2018-May-31 06:29N 48°45' W 122°29'0 0.0
2018-May-31 05:55N 48°45' W 122°29'0 0.0
2018-May-31 03:18N 48°45' W 122°29'0 0.0
2018-May-31 02:56N 48°45' W 122°29'0 0.0
2018-May-31 01:18N 48°45' W 122°29'0 0.0
2018-May-31 00:42N 48°45' W 122°29'0 0.0
2018-May-31 00:14N 48°45' W 122°29'0 0.0
2018-May-30 12:20N 48°45' W 122°29'  

Dump ship's entire track history